createdAt,value
2022-11-19T00:01:35.621Z,72.10
2022-11-19T00:04:07.697Z,72.13
2022-11-19T00:06:35.761Z,71.95
2022-11-19T00:09:06.055Z,71.82
2022-11-19T00:11:53.278Z,72.00
2022-11-19T00:14:21.353Z,71.88
2022-11-19T00:16:48.929Z,71.95
2022-11-19T00:19:17.279Z,71.77
2022-11-19T00:21:46.214Z,72.16
2022-11-19T00:24:14.450Z,72.35
2022-11-19T00:26:43.753Z,72.12
2022-11-19T00:29:16.831Z,72.29
2022-11-19T00:31:48.570Z,72.19
2022-11-19T00:34:16.624Z,71.95
2022-11-19T00:36:44.269Z,71.99
2022-11-19T00:39:12.551Z,72.34
2022-11-19T00:41:40.581Z,72.26
2022-11-19T00:44:08.296Z,72.00
2022-11-19T00:46:36.466Z,72.27
2022-11-19T00:49:04.847Z,72.11
2022-11-19T00:51:32.841Z,72.66
2022-11-19T00:54:01.103Z,72.67
2022-11-19T00:56:29.320Z,72.32
2022-11-19T00:58:57.136Z,71.80
2022-11-19T01:01:32.049Z,71.88
2022-11-19T01:04:00.084Z,72.51
2022-11-19T01:06:29.008Z,72.27
2022-11-19T01:08:57.164Z,72.35
2022-11-19T01:11:29.803Z,72.15
2022-11-19T01:13:59.553Z,72.05
2022-11-19T01:16:29.540Z,72.17
2022-11-19T01:18:59.091Z,72.17
2022-11-19T01:21:30.126Z,72.18
2022-11-19T01:23:59.250Z,72.16
2022-11-19T01:26:28.370Z,72.31
2022-11-19T01:28:57.071Z,72.36
2022-11-19T01:31:32.982Z,72.02
2022-11-19T01:34:01.175Z,72.67
2022-11-19T01:36:30.315Z,72.08
2022-11-19T01:38:58.890Z,72.34
2022-11-19T01:41:32.319Z,72.33
2022-11-19T01:44:02.786Z,72.42
2022-11-19T01:46:39.564Z,72.62
2022-11-19T01:49:17.547Z,72.30
2022-11-19T01:51:50.928Z,72.58
2022-11-19T01:54:21.887Z,72.67
2022-11-19T01:56:50.066Z,72.38
2022-11-19T01:59:21.069Z,72.62
2022-11-19T02:01:49.409Z,72.21
2022-11-19T02:04:21.604Z,72.23
2022-11-19T02:06:50.008Z,72.25
2022-11-19T02:09:18.401Z,72.37
2022-11-19T02:12:10.513Z,72.23
2022-11-19T02:14:56.978Z,72.50
2022-11-19T02:17:31.449Z,72.64
2022-11-19T02:20:25.092Z,72.31
2022-11-19T02:23:26.469Z,72.55
2022-11-19T02:26:12.932Z,72.48
2022-11-19T02:29:06.453Z,72.20
2022-11-19T02:32:03.354Z,71.93
2022-11-19T02:34:59.650Z,72.09
2022-11-19T02:37:56.532Z,72.37
2022-11-19T02:40:42.791Z,72.48
2022-11-19T02:43:22.738Z,72.41
2022-11-19T02:46:15.447Z,72.08
2022-11-19T02:48:50.720Z,72.01
2022-11-19T02:51:20.464Z,72.58
2022-11-19T02:53:49.110Z,72.78
2022-11-19T02:56:53.325Z,72.49
2022-11-19T03:00:06.122Z,72.51
2022-11-19T03:03:00.056Z,72.92
2022-11-19T03:05:34.546Z,72.50
2022-11-19T03:08:02.846Z,72.90
2022-11-19T03:10:40.334Z,72.90
2022-11-19T03:14:03.145Z,72.90
2022-11-19T03:16:43.471Z,72.92
2022-11-19T03:19:26.545Z,72.91
2022-11-19T03:22:13.931Z,72.48
2022-11-19T03:24:59.700Z,72.52
2022-11-19T03:27:42.465Z,72.78
2022-11-19T03:30:11.944Z,72.39
2022-11-19T03:32:46.499Z,72.83
2022-11-19T03:35:23.416Z,72.81
2022-11-19T03:37:57.148Z,72.60
2022-11-19T03:40:28.775Z,72.92
2022-11-19T03:42:59.763Z,73.08
2022-11-19T03:45:34.544Z,72.79
2022-11-19T03:48:04.955Z,73.02
2022-11-19T03:50:58.658Z,72.78
2022-11-19T03:53:28.806Z,73.13
2022-11-19T03:56:04.760Z,72.96
2022-11-19T03:58:42.090Z,73.40
2022-11-19T04:01:11.493Z,73.82
2022-11-19T04:03:39.580Z,73.17
2022-11-19T04:06:10.126Z,72.94
2022-11-19T04:08:38.117Z,73.54
2022-11-19T04:13:32.703Z,73.23
2022-11-19T04:16:00.672Z,73.13
2022-11-19T04:18:28.710Z,73.33
2022-11-19T04:20:58.061Z,73.35
2022-11-19T04:23:26.136Z,72.77
2022-11-19T04:25:54.115Z,73.30
2022-11-19T04:28:23.919Z,73.24
2022-11-19T04:30:51.888Z,73.22
2022-11-19T04:33:19.852Z,73.27
2022-11-19T04:35:48.047Z,73.05
2022-11-19T04:38:16.052Z,72.96
2022-11-19T04:40:44.026Z,73.21
2022-11-19T04:43:12.207Z,73.33
2022-11-19T04:45:40.204Z,72.96
2022-11-19T04:48:08.305Z,72.76
2022-11-19T04:50:36.512Z,72.96
2022-11-19T04:53:04.577Z,72.82
2022-11-19T04:55:32.526Z,72.54
2022-11-19T04:58:00.747Z,73.03
2022-11-19T05:00:30.566Z,73.15
2022-11-19T05:02:58.652Z,72.90
2022-11-19T05:05:26.829Z,72.77
2022-11-19T05:07:54.854Z,73.01
2022-11-19T05:10:22.842Z,72.86
2022-11-19T05:12:51.124Z,73.20
2022-11-19T05:15:19.211Z,73.11
2022-11-19T05:17:47.215Z,73.58
2022-11-19T05:20:15.627Z,73.33
2022-11-19T05:22:44.497Z,73.11
2022-11-19T05:25:12.519Z,73.50
2022-11-19T05:27:40.862Z,73.24
2022-11-19T05:30:09.832Z,73.39
2022-11-19T05:32:37.928Z,73.53
2022-11-19T05:35:07.197Z,73.36
2022-11-19T05:37:35.188Z,73.14
2022-11-19T05:40:03.770Z,73.56
2022-11-19T05:42:32.601Z,73.26
2022-11-19T05:45:00.581Z,73.73
2022-11-19T05:47:28.628Z,73.40
2022-11-19T05:49:57.478Z,73.58
2022-11-19T05:52:25.591Z,73.41
2022-11-19T05:54:53.587Z,73.58
2022-11-19T05:57:23.144Z,73.82
2022-11-19T05:59:51.156Z,73.81
2022-11-19T06:02:19.145Z,73.70
2022-11-19T06:04:47.323Z,73.86
2022-11-19T06:07:15.234Z,73.85
2022-11-19T06:09:43.212Z,73.49
2022-11-19T06:12:11.384Z,73.61
2022-11-19T06:14:39.447Z,73.86
2022-11-19T06:17:07.548Z,73.68
2022-11-19T06:19:35.871Z,73.58
2022-11-19T06:22:03.962Z,73.51
2022-11-19T06:24:33.265Z,73.66
2022-11-19T06:27:01.365Z,73.54
2022-11-19T06:29:29.327Z,73.28
2022-11-19T06:31:57.259Z,73.54
2022-11-19T06:34:25.355Z,73.77
2022-11-19T06:36:53.732Z,73.50
2022-11-19T06:39:21.925Z,73.56
2022-11-19T06:41:51.182Z,73.54
2022-11-19T06:44:19.243Z,73.67
2022-11-19T06:46:47.200Z,73.31
2022-11-19T06:49:20.090Z,73.52
2022-11-19T06:51:48.879Z,73.91
2022-11-19T06:54:16.788Z,73.62
2022-11-19T06:56:44.916Z,73.68
2022-11-19T06:59:12.979Z,73.51
2022-11-19T07:01:40.913Z,73.54
2022-11-19T07:04:10.841Z,73.70
2022-11-19T07:06:38.757Z,73.71
2022-11-19T07:09:06.708Z,73.57
2022-11-19T07:11:37.492Z,73.71
2022-11-19T07:14:05.436Z,73.52
2022-11-19T07:16:37.532Z,73.30
2022-11-19T07:19:08.166Z,73.64
2022-11-19T07:21:37.191Z,73.59
2022-11-19T07:24:09.492Z,73.60
2022-11-19T07:26:42.089Z,73.79
2022-11-19T07:29:14.801Z,73.68
2022-11-19T07:31:43.029Z,73.62
2022-11-19T07:34:14.255Z,73.77
2022-11-19T07:36:42.216Z,73.62
2022-11-19T07:39:10.211Z,73.53
2022-11-19T07:41:56.615Z,73.34
2022-11-19T07:44:24.626Z,73.47
2022-11-19T07:46:52.727Z,73.40
2022-11-19T07:49:23.335Z,73.89
2022-11-19T07:51:51.552Z,73.65
2022-11-19T07:54:19.584Z,73.29
2022-11-19T07:56:47.768Z,73.39
2022-11-19T07:59:15.899Z,73.28
2022-11-19T08:01:44.072Z,73.12
2022-11-19T08:04:12.365Z,73.49
2022-11-19T08:06:40.421Z,73.01
2022-11-19T08:09:08.556Z,73.35
2022-11-19T08:11:36.773Z,73.88
2022-11-19T08:14:05.106Z,73.61
2022-11-19T08:16:54.276Z,73.63
2022-11-19T08:20:22.661Z,73.59
2022-11-19T08:22:50.401Z,73.32
2022-11-19T08:25:18.424Z,73.44
2022-11-19T08:27:48.364Z,73.49
2022-11-19T08:30:19.709Z,73.70
2022-11-19T08:32:47.663Z,73.18
2022-11-19T08:35:15.523Z,73.54
2022-11-19T08:37:43.645Z,73.85
2022-11-19T08:40:11.834Z,73.82
2022-11-19T08:42:58.908Z,73.65
2022-11-19T08:45:35.891Z,73.67
2022-11-19T08:48:12.069Z,73.80
2022-11-19T08:50:42.677Z,73.17
2022-11-19T08:53:10.665Z,73.61
2022-11-19T08:55:40.247Z,73.54
2022-11-19T08:58:08.802Z,73.48
2022-11-19T09:00:38.167Z,73.62
2022-11-19T09:03:12.538Z,73.57
2022-11-19T09:05:40.565Z,73.41
2022-11-19T09:08:08.947Z,73.51
2022-11-19T09:10:39.064Z,73.65
2022-11-19T09:13:07.173Z,73.30
2022-11-19T09:15:36.512Z,73.40
2022-11-19T09:18:04.694Z,73.73
2022-11-19T09:20:32.709Z,73.25
2022-11-19T09:23:00.668Z,73.50
2022-11-19T09:25:31.102Z,73.15
2022-11-19T09:27:59.194Z,73.51
2022-11-19T09:30:27.490Z,73.50
2022-11-19T09:32:56.524Z,73.45
2022-11-19T09:35:24.518Z,73.71
2022-11-19T09:37:52.463Z,73.43
2022-11-19T09:40:24.695Z,73.21
2022-11-19T09:43:28.547Z,73.60
2022-11-19T09:46:05.322Z,73.89
2022-11-19T09:48:41.825Z,73.40
2022-11-19T09:51:18.462Z,73.55
2022-11-19T09:54:00.437Z,73.57
2022-11-19T09:56:39.344Z,73.78
2022-11-19T09:59:29.867Z,73.63
2022-11-19T10:01:59.220Z,73.41
2022-11-19T10:04:31.638Z,73.69
2022-11-19T10:07:12.885Z,73.64
2022-11-19T10:10:13.043Z,73.33
2022-11-19T10:13:15.627Z,73.37
2022-11-19T10:16:07.741Z,73.57
2022-11-19T10:19:09.210Z,73.47
2022-11-19T10:21:52.350Z,73.52
2022-11-19T10:24:49.933Z,73.54
2022-11-19T10:27:33.296Z,73.61
2022-11-19T10:30:09.452Z,73.62
2022-11-19T10:32:42.078Z,73.49
2022-11-19T10:35:19.712Z,73.67
2022-11-19T10:37:59.257Z,73.77
2022-11-19T10:40:39.686Z,73.70
2022-11-19T10:43:29.453Z,74.06
2022-11-19T10:46:02.111Z,73.97
2022-11-19T10:48:50.131Z,73.87
2022-11-19T10:51:38.238Z,73.94
2022-11-19T10:54:21.924Z,73.81
2022-11-19T10:56:51.713Z,73.73
2022-11-19T10:59:28.529Z,73.95
2022-11-19T11:02:28.218Z,73.64
2022-11-19T11:05:18.557Z,74.02
2022-11-19T11:07:56.690Z,73.73
2022-11-19T11:10:45.249Z,74.00
2022-11-19T11:13:51.873Z,73.96
2022-11-19T11:16:23.951Z,74.05
2022-11-19T11:18:55.325Z,74.45
2022-11-19T11:21:37.683Z,74.09
2022-11-19T11:24:06.617Z,73.74
2022-11-19T11:26:34.999Z,74.47
2022-11-19T11:29:15.233Z,74.14
2022-11-19T11:31:46.714Z,74.07
2022-11-19T11:34:26.653Z,74.02
2022-11-19T11:36:55.680Z,74.06
2022-11-19T11:39:30.043Z,74.27
2022-11-19T11:42:07.646Z,74.38
2022-11-19T11:44:39.438Z,74.00
2022-11-19T11:47:26.020Z,73.84
2022-11-19T11:50:18.416Z,74.27
2022-11-19T11:52:55.643Z,74.42
2022-11-19T11:55:26.351Z,74.10
2022-11-19T11:58:00.011Z,74.50
2022-11-19T12:00:37.189Z,74.41
2022-11-19T12:03:15.459Z,74.19
2022-11-19T12:06:13.956Z,74.49
2022-11-19T12:09:14.367Z,74.49
2022-11-19T12:11:59.713Z,74.63
2022-11-19T12:15:25.193Z,74.72
2022-11-19T12:18:09.756Z,74.67
2022-11-19T12:20:57.685Z,74.50
2022-11-19T12:23:44.201Z,74.60
2022-11-19T12:26:28.599Z,74.52
2022-11-19T12:29:14.644Z,74.69
2022-11-19T12:32:04.152Z,74.66
2022-11-19T12:34:44.074Z,74.49
2022-11-19T12:37:38.579Z,74.50
2022-11-19T12:40:26.414Z,74.67
2022-11-19T12:43:39.340Z,74.36
2022-11-19T12:46:25.485Z,74.74
2022-11-19T12:49:18.519Z,74.49
2022-11-19T12:51:53.112Z,74.65
2022-11-19T12:54:35.673Z,74.93
2022-11-19T12:57:15.730Z,74.80
2022-11-19T13:00:04.076Z,74.63
2022-11-19T13:03:12.987Z,74.83
2022-11-19T13:05:55.952Z,74.58
2022-11-19T13:08:56.629Z,74.66
2022-11-19T13:11:49.253Z,74.82
2022-11-19T13:14:53.508Z,74.78
2022-11-19T13:17:36.132Z,74.88
2022-11-19T13:20:08.758Z,74.78
2022-11-19T13:22:42.151Z,75.10
2022-11-19T13:25:31.044Z,74.87
2022-11-19T13:28:02.903Z,74.91
2022-11-19T13:30:34.067Z,74.43
2022-11-19T13:33:15.174Z,74.66
2022-11-19T13:36:20.384Z,74.69
2022-11-19T13:39:00.230Z,74.99
2022-11-19T13:41:34.352Z,75.01
2022-11-19T13:44:21.625Z,75.11
2022-11-19T13:47:01.456Z,74.88
2022-11-19T13:49:39.864Z,74.88
2022-11-19T13:52:10.446Z,74.85
2022-11-19T13:54:42.135Z,75.04
2022-11-19T13:57:38.642Z,75.31
2022-11-19T14:00:21.910Z,74.96
2022-11-19T14:03:27.272Z,75.14
2022-11-19T14:06:30.416Z,75.20
2022-11-19T14:09:24.236Z,75.07
2022-11-19T14:12:10.628Z,75.13
2022-11-19T14:15:18.909Z,75.10
2022-11-19T14:18:14.111Z,75.15
2022-11-19T14:21:04.770Z,75.26
2022-11-19T14:24:06.125Z,75.18
2022-11-19T14:26:43.158Z,75.20
2022-11-19T14:29:17.884Z,75.01
2022-11-19T14:32:03.162Z,75.26
2022-11-19T14:34:37.643Z,75.35
2022-11-19T14:37:20.325Z,75.68
2022-11-19T14:40:00.888Z,75.39
2022-11-19T14:42:29.064Z,75.41
2022-11-19T14:45:06.599Z,75.47
2022-11-19T14:47:45.169Z,75.50
2022-11-19T14:50:25.132Z,75.46
2022-11-19T14:52:56.984Z,75.56
2022-11-19T14:55:29.476Z,75.65
2022-11-19T14:58:08.702Z,75.66
2022-11-19T15:00:41.303Z,75.49
2022-11-19T15:03:19.312Z,75.69
2022-11-19T15:05:48.330Z,75.88
2022-11-19T15:08:18.836Z,75.73
2022-11-19T15:11:03.861Z,75.63
2022-11-19T15:13:37.032Z,75.77
2022-11-19T15:16:30.139Z,75.84
2022-11-19T15:19:35.101Z,75.78
2022-11-19T15:22:18.211Z,75.81
2022-11-19T15:25:19.786Z,75.77
2022-11-19T15:28:40.166Z,75.71
2022-11-19T15:31:28.257Z,75.73
2022-11-19T15:34:25.652Z,75.75
2022-11-19T15:37:01.615Z,75.90
2022-11-19T15:39:38.759Z,76.13
2022-11-19T15:42:13.290Z,75.95
2022-11-19T15:44:50.938Z,76.27
2022-11-19T15:47:26.325Z,75.94
2022-11-19T15:49:58.097Z,76.00
2022-11-19T15:52:32.775Z,75.94
2022-11-19T15:55:19.868Z,76.09
2022-11-19T15:57:52.410Z,76.31
2022-11-19T16:00:24.713Z,76.56
2022-11-19T16:02:54.453Z,76.09
2022-11-19T16:05:26.879Z,76.42
2022-11-19T16:07:57.134Z,76.59
2022-11-19T16:10:39.159Z,76.33
2022-11-19T16:13:44.371Z,76.31
2022-11-19T16:16:50.305Z,76.53
2022-11-19T16:19:19.134Z,76.74
2022-11-19T16:22:04.318Z,76.66
2022-11-19T16:24:51.764Z,77.02
2022-11-19T16:27:24.516Z,76.75
2022-11-19T16:29:52.852Z,76.80
2022-11-19T16:32:24.806Z,76.83
2022-11-19T16:34:53.386Z,76.73
2022-11-19T16:37:22.994Z,76.83
2022-11-19T16:39:53.897Z,76.93
2022-11-19T16:42:29.276Z,77.05
2022-11-19T16:45:18.062Z,76.68
2022-11-19T16:47:58.207Z,77.11
2022-11-19T16:50:27.997Z,77.08
2022-11-19T16:52:56.585Z,77.03
2022-11-19T16:55:26.343Z,77.20
2022-11-19T16:57:59.514Z,77.02
2022-11-19T17:00:35.283Z,77.20
2022-11-19T17:03:41.362Z,77.22
2022-11-19T17:06:19.594Z,77.36
2022-11-19T17:08:57.699Z,77.49
2022-11-19T17:11:59.543Z,77.52
2022-11-19T17:14:36.410Z,77.43
2022-11-19T17:17:04.822Z,77.62
2022-11-19T17:19:37.233Z,77.43
2022-11-19T17:22:14.948Z,77.25
2022-11-19T17:24:46.752Z,77.30
2022-11-19T17:27:28.827Z,77.50
2022-11-19T17:30:04.492Z,77.64
2022-11-19T17:32:46.540Z,77.61
2022-11-19T17:35:35.527Z,77.81
2022-11-19T17:38:30.624Z,77.60
2022-11-19T17:41:06.734Z,77.57
2022-11-19T17:43:58.613Z,77.93
2022-11-19T17:46:29.231Z,77.88
2022-11-19T17:48:57.720Z,77.69
2022-11-19T17:51:27.543Z,78.18
2022-11-19T17:53:57.482Z,77.75
2022-11-19T17:56:29.947Z,77.88
2022-11-19T17:59:00.469Z,77.98
2022-11-19T18:01:28.677Z,77.97
2022-11-19T18:03:56.771Z,77.90
2022-11-19T18:06:25.002Z,77.83
2022-11-19T18:08:53.005Z,77.82
2022-11-19T18:11:26.223Z,77.97
2022-11-19T18:13:58.429Z,77.82
2022-11-19T18:16:28.654Z,78.07
2022-11-19T18:18:58.483Z,78.24
2022-11-19T18:21:29.125Z,78.07
2022-11-19T18:23:57.145Z,78.25
2022-11-19T18:26:25.197Z,77.94
2022-11-19T18:28:54.197Z,77.86
2022-11-19T18:31:26.902Z,78.10
2022-11-19T18:33:56.963Z,78.37
2022-11-19T18:36:27.846Z,78.28
2022-11-19T18:38:56.239Z,78.18
2022-11-19T18:41:24.465Z,78.14
2022-11-19T18:44:10.739Z,78.31
2022-11-19T18:46:38.790Z,78.59
2022-11-19T18:49:06.865Z,78.47
2022-11-19T18:51:35.101Z,78.55
2022-11-19T18:54:03.015Z,78.48
2022-11-19T18:56:31.141Z,78.68
2022-11-19T18:59:04.339Z,78.49
2022-11-19T19:01:33.107Z,78.57
2022-11-19T19:04:01.235Z,78.58
2022-11-19T19:06:31.158Z,78.44
2022-11-19T19:08:59.462Z,78.19
2022-11-19T19:11:47.239Z,78.62
2022-11-19T19:14:15.645Z,78.58
2022-11-19T19:16:43.916Z,78.41
2022-11-19T19:19:14.931Z,78.52
2022-11-19T19:21:44.137Z,78.68
2022-11-19T19:24:12.260Z,78.62
2022-11-19T19:26:40.606Z,78.70
2022-11-19T19:29:09.344Z,78.63
2022-11-19T19:31:37.844Z,79.06
2022-11-19T19:34:07.178Z,78.73
2022-11-19T19:36:35.225Z,78.79
2022-11-19T19:39:03.203Z,78.73
2022-11-19T19:41:33.918Z,78.83
2022-11-19T19:44:03.966Z,78.66
2022-11-19T19:46:33.515Z,78.91
2022-11-19T19:49:01.597Z,78.40
2022-11-19T19:51:32.044Z,78.81
2022-11-19T19:54:00.952Z,78.77
2022-11-19T19:56:33.071Z,78.72
2022-11-19T19:59:02.185Z,78.71
2022-11-19T20:01:31.579Z,78.61
2022-11-19T20:04:08.081Z,78.52
2022-11-19T20:06:38.665Z,78.90
2022-11-19T20:09:08.947Z,78.75
2022-11-19T20:11:38.962Z,78.78
2022-11-19T20:14:07.267Z,79.53
2022-11-19T20:16:35.919Z,79.03
2022-11-19T20:19:07.096Z,78.97
2022-11-19T20:21:36.818Z,78.66
2022-11-19T20:24:12.184Z,78.99
2022-11-19T20:26:42.380Z,79.41
2022-11-19T20:29:15.036Z,79.17
2022-11-19T20:31:48.191Z,78.74
2022-11-19T20:34:17.900Z,79.16
2022-11-19T20:36:46.089Z,79.18
2022-11-19T20:39:14.376Z,79.26
2022-11-19T20:42:00.840Z,79.52
2022-11-19T20:44:30.174Z,79.26
2022-11-19T20:47:03.753Z,79.03
2022-11-19T20:49:35.219Z,79.37
2022-11-19T20:52:06.038Z,79.11
2022-11-19T20:54:34.882Z,79.18
2022-11-19T20:57:03.180Z,79.11
2022-11-19T20:59:31.396Z,78.98
2022-11-19T21:01:59.725Z,79.02
2022-11-19T21:04:29.436Z,79.07
2022-11-19T21:06:59.042Z,79.46
2022-11-19T21:09:27.056Z,79.13
2022-11-19T21:11:54.967Z,78.89
2022-11-19T21:14:25.175Z,78.94
2022-11-19T21:16:53.238Z,79.06
2022-11-19T21:19:21.436Z,79.32
2022-11-19T21:21:49.978Z,79.10
2022-11-19T21:24:18.901Z,79.01
2022-11-19T21:26:47.070Z,78.77
2022-11-19T21:29:15.200Z,79.12
2022-11-19T21:31:47.040Z,78.96
2022-11-19T21:34:24.002Z,79.24
2022-11-19T21:36:52.363Z,79.10
2022-11-19T21:39:20.952Z,79.27
2022-11-19T21:41:51.088Z,79.00
2022-11-19T21:44:21.847Z,79.07
2022-11-19T21:46:50.425Z,79.05
2022-11-19T21:49:19.166Z,79.52
2022-11-19T21:51:47.422Z,78.87
2022-11-19T21:54:15.377Z,79.17
2022-11-19T21:56:44.288Z,79.16
2022-11-19T21:59:12.436Z,79.14
2022-11-19T22:01:40.422Z,79.37
2022-11-19T22:04:10.136Z,79.12
2022-11-19T22:06:38.110Z,79.41
2022-11-19T22:09:06.309Z,79.15
2022-11-19T22:11:36.245Z,79.57
2022-11-19T22:14:09.147Z,79.33
2022-11-19T22:16:40.390Z,79.37
2022-11-19T22:19:09.340Z,79.53
2022-11-19T22:21:37.500Z,79.27
2022-11-19T22:24:06.651Z,79.19
2022-11-19T22:26:34.841Z,79.12
2022-11-19T22:29:02.820Z,78.99
2022-11-19T22:31:30.929Z,78.92
2022-11-19T22:33:58.878Z,79.29
2022-11-19T22:36:26.863Z,78.94
2022-11-19T22:38:55.163Z,78.92
2022-11-19T22:41:23.506Z,78.60
2022-11-19T22:43:51.509Z,79.12
2022-11-19T22:46:22.304Z,79.05
2022-11-19T22:48:52.328Z,79.03
2022-11-19T22:51:25.688Z,79.07
2022-11-19T22:53:55.170Z,79.04
2022-11-19T22:56:26.448Z,79.46
2022-11-19T22:58:55.169Z,79.20
2022-11-19T23:01:32.431Z,78.96
2022-11-19T23:04:03.336Z,79.14
2022-11-19T23:06:31.416Z,79.29
2022-11-19T23:09:00.266Z,79.13
2022-11-19T23:11:46.510Z,78.93
2022-11-19T23:14:17.174Z,78.60
2022-11-19T23:16:46.202Z,78.97
2022-11-19T23:19:15.205Z,78.79
2022-11-19T23:21:43.058Z,78.77
2022-11-19T23:24:11.769Z,78.79
2022-11-19T23:26:40.580Z,78.40
2022-11-19T23:29:10.521Z,79.05
2022-11-19T23:31:40.439Z,78.75
2022-11-19T23:34:09.116Z,78.19
2022-11-19T23:36:40.569Z,78.58
2022-11-19T23:39:14.418Z,78.54
2022-11-19T23:41:42.669Z,78.59
2022-11-19T23:44:13.107Z,78.86
2022-11-19T23:46:41.545Z,78.73
2022-11-19T23:49:11.904Z,78.25
2022-11-19T23:51:41.055Z,78.68
2022-11-19T23:54:09.044Z,78.33
2022-11-19T23:56:37.185Z,78.33
2022-11-19T23:59:07.270Z,78.35
